Time;durP1;ratioP1;P1;durP2;ratioP2;P2;SDS_P1;SDS_P2;PMS_P1;PMS_P2;Temp;Humidity;BMP_temperature;BMP_pressure;BME280_temperature;BME280_humidity;BME280_pressure;Samples;Min_cycle;Max_cycle;Signal;HPM_P1;HPM_P2
2022/02/25 00:01:06;;;;;;;0.30;0.30;;;;;;;4.53;86.74;96460.06;5035863;28;20709;-73
2022/02/25 00:03:34;;;;;;;0.23;0.23;;;;;;;4.69;86.29;96462.97;5035920;28;20578;-72
2022/02/25 00:06:00;;;;;;;0.70;0.53;;;;;;;4.72;86.20;96467.91;5035726;28;20640;-72
2022/02/25 00:08:27;;;;;;;0.27;0.27;;;;;;;4.60;85.82;96463.78;5035747;28;20232;-72
2022/02/25 00:10:53;;;;;;;0.20;0.20;;;;;;;4.48;85.06;96478.75;5036314;28;20229;-72
2022/02/25 00:13:20;;;;;;;0.20;0.20;;;;;;;4.62;84.49;96467.91;5034921;28;20209;-72
2022/02/25 00:15:46;;;;;;;0.20;0.20;;;;;;;4.54;81.39;96479.97;5036048;28;20575;-72
2022/02/25 00:18:13;;;;;;;1.07;0.50;;;;;;;4.47;78.94;96452.78;5036391;28;20209;-72
2022/02/25 00:20:41;;;;;;;0.20;0.20;;;;;;;4.77;78.90;96444.84;5035450;28;20587;-72
2022/02/25 00:23:07;;;;;;;0.20;0.20;;;;;;;4.63;78.68;96443.44;5034996;28;20500;-74
2022/02/25 00:25:34;;;;;;;0.20;0.20;;;;;;;4.74;77.96;96445.94;5036563;28;20208;-74
2022/02/25 00:28:00;;;;;;;0.30;0.30;;;;;;;4.54;76.90;96448.66;5036148;28;20790;-74
2022/02/25 00:30:27;;;;;;;0.80;0.80;;;;;;;4.64;76.01;96458.16;5035276;28;20219;-74
2022/02/25 00:32:53;;;;;;;0.20;0.20;;;;;;;4.65;76.60;96466.81;5035604;28;20209;-74
2022/02/25 00:35:20;;;;;;;0.20;0.20;;;;;;;4.59;73.95;96488.22;5035679;28;20205;-74
2022/02/25 00:37:49;;;;;;;0.30;0.30;;;;;;;4.99;74.72;96477.53;5035089;28;20612;-74
2022/02/25 00:40:15;;;;;;;0.20;0.20;;;;;;;4.71;72.86;96471.47;5035702;28;20209;-74
2022/02/25 00:42:42;;;;;;;0.20;0.20;;;;;;;4.54;71.44;96465.13;5035542;28;20240;-73
2022/02/25 00:45:09;;;;;;;0.20;0.20;;;;;;;4.78;71.12;96475.22;5035032;28;20367;-72
2022/02/25 00:47:37;;;;;;;0.20;0.20;;;;;;;4.60;70.62;96458.56;5035608;28;20237;-74
2022/02/25 00:50:04;;;;;;;8.30;0.90;;;;;;;4.73;70.72;96464.34;5038122;28;20544;-75
2022/02/25 00:52:31;;;;;;;0.80;0.63;;;;;;;4.62;69.78;96478.34;5038184;28;20225;-75
2022/02/25 00:54:59;;;;;;;0.30;0.30;;;;;;;4.63;71.16;96487.00;5039450;28;20216;-75
2022/02/25 00:57:25;;;;;;;0.37;0.37;;;;;;;4.64;71.81;96486.03;5039388;28;20586;-75
2022/02/25 00:59:52;;;;;;;0.30;0.30;;;;;;;4.64;72.10;96497.28;5039243;28;20300;-75
2022/02/25 01:02:18;;;;;;;0.20;0.20;;;;;;;4.62;72.99;96508.81;5038203;28;20224;-75
2022/02/25 01:04:46;;;;;;;0.30;0.30;;;;;;;4.61;72.51;96512.38;5039175;28;20587;-75
2022/02/25 01:07:13;;;;;;;0.30;0.30;;;;;;;4.50;72.46;96513.31;5039162;28;20205;-75
2022/02/25 01:09:39;;;;;;;0.20;0.20;;;;;;;4.51;72.86;96516.78;5038949;28;20705;-75
2022/02/25 01:12:10;;;;;;;0.30;0.30;;;;;;;4.61;73.09;96515.84;5039008;28;20597;-75
2022/02/25 01:14:36;;;;;;;9.03;0.50;;;;;;;4.45;73.51;96522.53;5039375;28;20207;-74
2022/02/25 01:17:03;;;;;;;0.20;0.20;;;;;;;4.54;73.00;96529.56;5038877;28;20208;-74
2022/02/25 01:19:30;;;;;;;0.20;0.20;;;;;;;4.65;72.62;96529.44;5038894;28;20520;-74
2022/02/25 01:21:56;;;;;;;0.20;0.20;;;;;;;4.50;73.06;96542.03;5039148;28;20223;-74
2022/02/25 01:24:23;;;;;;;0.20;0.20;;;;;;;4.59;72.93;96545.63;5038157;28;20231;-75
2022/02/25 01:26:49;;;;;;;0.20;0.20;;;;;;;4.55;72.61;96554.69;5039011;28;20208;-75
2022/02/25 01:29:17;;;;;;;0.30;0.30;;;;;;;4.79;72.25;96545.53;5038821;28;20768;-75
2022/02/25 01:31:45;;;;;;;0.30;0.30;;;;;;;4.58;72.78;96541.38;5037817;28;20233;-75
2022/02/25 01:34:11;;;;;;;0.37;0.37;;;;;;;4.56;73.15;96551.13;5037688;28;20209;-75
2022/02/25 01:36:38;;;;;;;0.40;0.40;;;;;;;4.51;73.16;96561.94;5039495;28;20209;-75
2022/02/25 01:39:05;;;;;;;0.23;0.23;;;;;;;4.65;72.71;96566.00;5038346;28;20212;-75
2022/02/25 01:41:32;;;;;;;0.20;0.20;;;;;;;4.55;72.95;96563.34;5037722;28;20256;-75
2022/02/25 01:44:16;;;;;;;0.30;0.30;;;;;;;4.73;72.03;96563.53;5038125;28;20236;-73
2022/02/25 01:46:47;;;;;;;0.20;0.20;;;;;;;4.74;72.64;96565.19;5038205;28;20220;-73
2022/02/25 01:49:14;;;;;;;0.63;0.63;;;;;;;4.62;73.06;96568.84;5038489;28;20225;-73
2022/02/25 01:51:40;;;;;;;0.73;0.40;;;;;;;4.48;73.76;96575.28;5038375;28;20579;-73
2022/02/25 01:54:07;;;;;;;0.30;0.30;;;;;;;4.72;73.07;96578.34;5037476;28;20205;-73
2022/02/25 01:56:34;;;;;;;0.30;0.30;;;;;;;4.57;73.66;96569.25;5038023;28;20291;-73
2022/02/25 01:59:01;;;;;;;0.20;0.20;;;;;;;4.68;73.65;96576.16;5037978;28;20498;-73
2022/02/25 02:01:28;;;;;;;0.93;0.40;;;;;;;4.64;73.82;96575.59;5036984;28;20231;-73
2022/02/25 02:03:56;;;;;;;0.50;0.40;;;;;;;4.78;73.51;96582.22;5037426;28;20201;-73
2022/02/25 02:06:38;;;;;;;0.30;0.30;;;;;;;4.78;73.37;96590.88;5038422;28;20209;-73
2022/02/25 02:09:05;;;;;;;0.63;0.47;;;;;;;4.69;73.61;96596.09;5037737;28;20235;-73
2022/02/25 02:11:33;;;;;;;0.30;0.30;;;;;;;4.71;73.88;96596.75;5037129;28;20739;-73
2022/02/25 02:14:01;;;;;;;0.70;0.67;;;;;;;4.60;73.86;96599.50;5037106;28;20601;-74
2022/02/25 02:16:29;;;;;;;0.30;0.30;;;;;;;4.51;74.45;96611.53;5037935;28;20208;-73
2022/02/25 02:18:56;;;;;;;0.30;0.30;;;;;;;4.66;73.97;96618.06;5037594;28;20212;-73
2022/02/25 02:21:25;;;;;;;11.90;0.57;;;;;;;4.82;73.49;96618.38;5037320;28;20598;-73
2022/02/25 02:23:53;;;;;;;0.20;0.20;;;;;;;4.72;73.92;96627.13;5036772;28;20592;-73
2022/02/25 02:26:20;;;;;;;2.53;0.50;;;;;;;4.46;72.48;96628.53;5037165;28;20205;-73
2022/02/25 02:28:47;;;;;;;0.30;0.30;;;;;;;4.58;72.88;96630.94;5037735;28;20244;-73
2022/02/25 02:31:14;;;;;;;0.20;0.20;;;;;;;4.52;71.85;96641.03;5037380;28;20236;-73
2022/02/25 02:33:41;;;;;;;0.50;0.50;;;;;;;4.43;72.15;96650.50;5036663;28;20202;-73
2022/02/25 02:36:08;;;;;;;0.30;0.30;;;;;;;4.43;72.51;96654.88;5037685;28;20561;-73
2022/02/25 02:38:35;;;;;;;0.20;0.20;;;;;;;4.53;72.28;96669.66;5037426;28;20205;-73
2022/02/25 02:41:03;;;;;;;0.30;0.30;;;;;;;4.64;72.61;96659.09;5036751;28;20430;-73
2022/02/25 02:43:30;;;;;;;0.30;0.30;;;;;;;4.59;72.96;96650.84;5036246;28;20201;-73
2022/02/25 02:45:56;;;;;;;0.30;0.30;;;;;;;4.46;72.74;96665.06;5038045;28;20212;-73
2022/02/25 02:48:23;;;;;;;0.30;0.30;;;;;;;4.43;73.32;96665.31;5037043;28;20673;-73
2022/02/25 02:50:50;;;;;;;0.50;0.50;;;;;;;4.51;72.59;96665.50;5036737;28;21108;-73
2022/02/25 02:53:16;;;;;;;0.20;0.20;;;;;;;4.55;73.17;96672.94;5036232;28;20204;-73
2022/02/25 02:55:43;;;;;;;0.30;0.30;;;;;;;4.63;73.05;96686.16;5037470;28;20220;-73
2022/02/25 02:58:11;;;;;;;0.23;0.23;;;;;;;4.51;72.67;96678.56;5036758;28;20208;-73
2022/02/25 03:00:39;;;;;;;0.30;0.30;;;;;;;4.52;71.98;96674.97;5036974;28;20607;-73
2022/02/25 03:03:06;;;;;;;0.30;0.30;;;;;;;4.23;71.37;96694.88;5035922;28;20769;-73
2022/02/25 03:05:32;;;;;;;0.30;0.30;;;;;;;4.23;72.01;96695.69;5035801;28;20707;-73
2022/02/25 03:07:59;;;;;;;0.30;0.30;;;;;;;4.33;71.17;96693.97;5036585;28;20235;-73
2022/02/25 03:10:26;;;;;;;1.07;0.60;;;;;;;4.35;71.39;96712.09;5033219;28;20220;-73
2022/02/25 03:12:52;;;;;;;0.27;0.27;;;;;;;4.26;71.11;96713.72;5035436;28;20212;-73
2022/02/25 03:15:20;;;;;;;1.30;0.30;;;;;;;4.30;70.63;96717.72;5036360;28;20201;-73
2022/02/25 03:17:47;;;;;;;0.30;0.30;;;;;;;4.27;70.83;96719.75;5036700;28;20224;-73
2022/02/25 03:20:14;;;;;;;0.20;0.20;;;;;;;4.30;71.28;96716.88;5036801;28;20370;-73
2022/02/25 03:22:41;;;;;;;0.30;0.30;;;;;;;4.23;71.48;96720.94;5035169;28;20697;-73
2022/02/25 03:25:09;;;;;;;5.00;0.60;;;;;;;4.41;71.16;96722.03;5036272;28;20216;-74
2022/02/25 03:27:35;;;;;;;0.30;0.30;;;;;;;4.07;69.97;96728.38;5036666;28;20236;-73
2022/02/25 03:30:02;;;;;;;0.43;0.30;;;;;;;4.16;69.02;96734.63;5036020;28;20231;-74
2022/02/25 03:32:30;;;;;;;0.30;0.30;;;;;;;4.35;68.97;96736.41;5035676;28;20252;-73
2022/02/25 03:34:57;;;;;;;0.30;0.30;;;;;;;4.23;70.14;96740.03;5033004;28;20220;-73
2022/02/25 03:37:24;;;;;;;0.37;0.37;;;;;;;4.24;69.79;96738.25;5036320;28;20212;-74
2022/02/25 03:39:50;;;;;;;0.67;0.40;;;;;;;4.20;69.96;96742.06;5036006;28;20578;-73
2022/02/25 03:42:17;;;;;;;0.30;0.30;;;;;;;4.19;70.54;96755.22;5035443;28;20232;-73
2022/02/25 03:44:43;;;;;;;0.33;0.33;;;;;;;4.35;69.78;96751.22;5036162;28;20471;-74
2022/02/25 03:47:10;;;;;;;0.37;0.37;;;;;;;4.19;70.13;96756.06;5036050;28;20212;-73
2022/02/25 03:49:38;;;;;;;0.40;0.40;;;;;;;4.22;70.02;96768.84;5036159;28;20675;-73
2022/02/25 03:52:05;;;;;;;0.20;0.20;;;;;;;4.24;70.26;96772.97;5035761;28;20225;-73
2022/02/25 03:54:32;;;;;;;0.40;0.27;;;;;;;4.17;69.70;96773.59;5035332;28;20211;-73
2022/02/25 03:56:59;;;;;;;0.30;0.30;;;;;;;4.02;69.36;96781.84;5035749;28;20209;-73
2022/02/25 03:59:25;;;;;;;0.30;0.30;;;;;;;3.90;69.47;96770.63;5036352;28;20205;-73
2022/02/25 04:01:52;;;;;;;0.30;0.30;;;;;;;3.82;69.80;96775.66;5036048;28;20237;-73
2022/02/25 04:04:19;;;;;;;4.80;1.37;;;;;;;3.96;69.44;96780.59;5035102;28;20236;-74
2022/02/25 04:06:47;;;;;;;0.30;0.30;;;;;;;4.01;69.08;96780.19;5035706;28;20208;-74
2022/02/25 04:09:18;;;;;;;0.40;0.40;;;;;;;3.77;68.97;96783.00;5035716;28;20224;-73
2022/02/25 04:11:44;;;;;;;0.37;0.37;;;;;;;3.86;68.66;96781.44;5032183;28;20235;-73
2022/02/25 04:14:11;;;;;;;0.30;0.30;;;;;;;3.78;67.74;96782.06;5035543;28;20666;-74
2022/02/25 04:16:37;;;;;;;0.37;0.37;;;;;;;3.77;67.64;96785.63;5035583;28;20917;-73
2022/02/25 04:19:05;;;;;;;0.30;0.30;;;;;;;3.86;67.22;96786.66;5036072;28;20217;-73
2022/02/25 04:21:31;;;;;;;0.67;0.63;;;;;;;3.91;67.23;96792.34;5035735;28;20317;-73
2022/02/25 04:23:59;;;;;;;0.30;0.30;;;;;;;3.93;66.69;96793.84;5036155;28;20212;-73
2022/02/25 04:26:26;;;;;;;0.30;0.30;;;;;;;3.87;66.78;96799.56;5039424;28;20209;-73
2022/02/25 04:28:52;;;;;;;0.30;0.30;;;;;;;3.77;66.40;96803.03;5039923;28;20209;-73
2022/02/25 04:31:19;;;;;;;3.60;1.23;;;;;;;3.98;66.36;96802.13;5039480;28;20705;-73
2022/02/25 04:33:46;;;;;;;0.30;0.30;;;;;;;4.00;66.24;96808.06;5039304;28;20605;-73
2022/02/25 04:36:13;;;;;;;0.30;0.30;;;;;;;4.05;66.25;96808.50;5039619;28;20209;-74
2022/02/25 04:38:39;;;;;;;0.30;0.30;;;;;;;3.86;66.22;96810.13;5037723;28;20209;-73
2022/02/25 04:41:07;;;;;;;0.43;0.43;;;;;;;3.99;66.56;96808.19;5040002;28;20221;-73
2022/02/25 04:43:34;;;;;;;0.30;0.30;;;;;;;3.91;65.96;96816.63;5038663;28;20198;-73
2022/02/25 04:46:00;;;;;;;0.20;0.20;;;;;;;3.94;65.65;96810.34;5039589;28;20876;-73
2022/02/25 04:48:27;;;;;;;0.30;0.30;;;;;;;4.21;65.10;96811.53;5039632;28;20209;-73
2022/02/25 04:50:54;;;;;;;0.40;0.40;;;;;;;4.17;65.60;96812.72;5039257;28;20251;-73
2022/02/25 04:53:21;;;;;;;0.23;0.23;;;;;;;4.19;65.44;96818.66;5038563;28;20208;-74
2022/02/25 04:55:48;;;;;;;0.40;0.30;;;;;;;4.18;65.16;96824.81;5039382;28;20208;-74
2022/02/25 04:58:17;;;;;;;0.50;0.50;;;;;;;4.33;65.46;96826.19;5039664;28;20212;-74
2022/02/25 05:00:44;;;;;;;3.80;1.43;;;;;;;4.15;65.99;96822.47;5038822;28;20228;-74
2022/02/25 05:03:11;;;;;;;1.43;0.93;;;;;;;4.25;66.33;96828.56;5038734;28;20209;-73
2022/02/25 05:05:37;;;;;;;4.57;1.17;;;;;;;4.35;66.06;96819.91;5039352;28;20208;-74
2022/02/25 05:08:04;;;;;;;0.30;0.30;;;;;;;4.47;66.00;96828.50;5038824;28;20296;-74
2022/02/25 05:10:32;;;;;;;0.40;0.40;;;;;;;4.09;67.06;96817.75;5035987;28;20251;-73
2022/02/25 05:12:58;;;;;;;0.50;0.50;;;;;;;4.15;67.49;96821.63;5038906;28;20294;-73
2022/02/25 05:20:54;;;;;;;2.70;0.47;;;;;;;4.01;69.52;96835.78;5039315;28;20232;-73
2022/02/25 05:23:21;;;;;;;0.30;0.30;;;;;;;4.23;69.28;96835.72;5038389;28;20205;-74
2022/02/25 05:25:48;;;;;;;0.90;0.60;;;;;;;4.11;69.46;96835.88;5038244;28;20212;-74
2022/02/25 05:28:14;;;;;;;0.43;0.30;;;;;;;4.00;70.03;96833.31;5038945;28;20471;-73
2022/02/25 05:30:42;;;;;;;0.30;0.30;;;;;;;4.42;69.34;96839.31;5038401;28;20720;-73
2022/02/25 05:33:09;;;;;;;0.80;0.60;;;;;;;3.88;69.60;96842.09;5037681;28;20578;-73
2022/02/25 05:35:35;;;;;;;2.53;0.60;;;;;;;3.86;70.02;96849.22;5037579;28;20296;-73
2022/02/25 05:38:02;;;;;;;0.50;0.50;;;;;;;3.92;69.39;96859.16;5039061;28;20205;-73
2022/02/25 05:40:29;;;;;;;2.83;0.63;;;;;;;4.05;69.42;96857.22;5038032;28;20480;-74
2022/02/25 05:42:56;;;;;;;0.97;0.60;;;;;;;3.79;70.08;96866.28;5038689;28;20210;-73
2022/02/25 05:45:22;;;;;;;1.30;0.60;;;;;;;3.87;69.98;96864.75;5038437;28;20205;-73
2022/02/25 05:47:50;;;;;;;5.50;0.80;;;;;;;3.84;70.33;96862.34;5038402;28;20546;-73
2022/02/25 05:50:18;;;;;;;0.20;0.20;;;;;;;3.89;70.80;96878.47;5038200;28;20232;-73
2022/02/25 05:52:46;;;;;;;0.77;0.40;;;;;;;4.07;69.94;96881.41;5037890;28;20225;-73
2022/02/25 05:55:14;;;;;;;0.40;0.40;;;;;;;3.88;69.76;96884.66;5037921;28;20212;-73
2022/02/25 05:57:40;;;;;;;1.13;0.60;;;;;;;3.92;69.68;96888.66;5038041;28;20828;-73
2022/02/25 06:00:10;;;;;;;0.60;0.50;;;;;;;4.00;70.13;96881.06;5038427;28;20197;-73
2022/02/25 06:02:37;;;;;;;0.30;0.30;;;;;;;3.79;69.78;96880.16;5037749;28;20548;-73
2022/02/25 06:05:06;;;;;;;0.50;0.50;;;;;;;3.87;70.09;96897.78;5038295;28;20219;-73
2022/02/25 06:07:32;;;;;;;1.13;0.70;;;;;;;3.88;69.81;96894.22;5037929;28;20204;-73
2022/02/25 06:09:59;;;;;;;0.67;0.67;;;;;;;3.86;69.91;96896.97;5035169;28;20239;-73
2022/02/25 06:12:26;;;;;;;0.77;0.63;;;;;;;3.95;71.27;96891.03;5043849;28;20221;-73
2022/02/25 06:14:52;;;;;;;1.50;1.07;;;;;;;3.85;70.58;96897.09;5038619;28;20520;-73
2022/02/25 06:17:19;;;;;;;0.40;0.40;;;;;;;3.63;71.18;96899.72;5035962;28;20205;-73
2022/02/25 06:19:45;;;;;;;0.50;0.50;;;;;;;3.60;71.38;96912.16;5038244;28;20600;-73
2022/02/25 06:22:13;;;;;;;9.07;1.07;;;;;;;3.86;70.82;96917.81;5036960;28;20225;-73
2022/02/25 06:24:40;;;;;;;2.70;1.33;;;;;;;3.43;72.17;96920.44;5037567;28;20216;-73
2022/02/25 06:27:06;;;;;;;0.60;0.60;;;;;;;3.75;71.55;96923.03;5038036;28;20227;-73
2022/02/25 06:29:33;;;;;;;1.03;0.70;;;;;;;3.72;72.01;96918.06;5037364;28;20231;-73
2022/02/25 06:32:01;;;;;;;1.23;0.73;;;;;;;3.81;72.24;96926.97;5037398;28;20232;-73
2022/02/25 06:34:27;;;;;;;0.30;0.30;;;;;;;3.78;72.08;96921.97;5036782;28;20209;-73
2022/02/25 06:36:54;;;;;;;0.30;0.30;;;;;;;3.68;72.00;96932.28;5037479;28;20502;-73
2022/02/25 06:39:22;;;;;;;0.30;0.30;;;;;;;4.07;71.25;96931.75;5037268;28;20206;-73
2022/02/25 06:41:48;;;;;;;0.87;0.50;;;;;;;3.74;71.95;96924.00;5036910;28;20229;-73
2022/02/25 06:44:16;;;;;;;0.93;0.93;;;;;;;3.75;71.93;96928.25;5036787;28;20201;-73
2022/02/25 06:46:42;;;;;;;0.20;0.20;;;;;;;3.77;71.71;96926.34;5036936;28;20312;-73
2022/02/25 06:49:09;;;;;;;0.63;0.60;;;;;;;3.75;72.00;96924.81;5037074;28;20219;-73
2022/02/25 06:51:35;;;;;;;1.77;0.70;;;;;;;3.56;72.80;96932.38;5036459;28;20228;-73
2022/02/25 06:54:02;;;;;;;1.50;0.93;;;;;;;3.70;72.09;96932.16;5036711;28;20204;-74
2022/02/25 06:56:30;;;;;;;0.40;0.40;;;;;;;3.87;72.35;96927.31;5036799;28;20212;-73
2022/02/25 06:58:56;;;;;;;0.30;0.30;;;;;;;3.78;72.32;96935.00;5036519;28;20208;-73
2022/02/25 07:01:23;;;;;;;0.50;0.50;;;;;;;3.83;72.52;96925.03;5036465;28;20447;-73
2022/02/25 07:03:50;;;;;;;0.40;0.40;;;;;;;3.79;72.22;96934.91;5035942;28;20205;-74
2022/02/25 07:06:17;;;;;;;2.57;0.50;;;;;;;3.77;72.28;96933.34;5036475;28;20208;-73
2022/02/25 07:08:44;;;;;;;0.50;0.50;;;;;;;3.95;71.79;96934.53;5036248;28;20219;-73
2022/02/25 07:11:10;;;;;;;0.30;0.30;;;;;;;3.83;72.28;96940.69;5034026;28;20235;-73
2022/02/25 07:13:38;;;;;;;0.20;0.20;;;;;;;3.82;72.55;96934.66;5035592;28;20216;-73
2022/02/25 07:16:05;;;;;;;0.30;0.30;;;;;;;3.79;72.63;96941.88;5036236;28;20365;-73
2022/02/25 07:18:31;;;;;;;0.40;0.40;;;;;;;3.68;73.12;96942.72;5036234;28;20527;-72
2022/02/25 07:20:57;;;;;;;0.60;0.60;;;;;;;3.79;72.71;96947.94;5036222;28;20224;-73
2022/02/25 07:23:24;;;;;;;0.30;0.30;;;;;;;3.87;73.12;96945.56;5035835;28;20208;-73
2022/02/25 07:25:51;;;;;;;0.33;0.33;;;;;;;3.98;72.45;96942.91;5037000;28;20415;-73
2022/02/25 07:28:17;;;;;;;0.60;0.60;;;;;;;3.67;73.25;96943.66;5035047;28;20693;-73
2022/02/25 07:30:45;;;;;;;1.23;0.90;;;;;;;3.89;73.14;96935.00;5035466;28;20239;-72
2022/02/25 07:33:11;;;;;;;0.40;0.40;;;;;;;3.75;73.63;96946.47;5035600;28;20250;-73
2022/02/25 07:35:38;;;;;;;0.33;0.33;;;;;;;3.86;73.44;96928.25;5036156;28;20209;-73
2022/02/25 07:38:04;;;;;;;1.23;0.40;;;;;;;3.99;72.72;96946.38;5036113;28;20704;-73
2022/02/25 07:40:31;;;;;;;1.27;0.67;;;;;;;3.92;73.05;96940.81;5036297;28;20201;-73
2022/02/25 07:42:57;;;;;;;0.40;0.40;;;;;;;3.99;72.75;96943.75;5035247;28;20512;-73
2022/02/25 07:45:27;;;;;;;0.40;0.40;;;;;;;4.19;72.53;96949.06;5036187;28;20212;-73
2022/02/25 07:47:56;;;;;;;0.50;0.30;;;;;;;4.03;72.63;96951.22;5037035;28;21438;-73
2022/02/25 07:50:22;;;;;;;0.30;0.30;;;;;;;4.17;71.79;96948.34;5036075;28;20232;-73
2022/02/25 07:52:49;;;;;;;0.30;0.30;;;;;;;4.26;72.20;96965.88;5034971;28;20625;-73
2022/02/25 07:55:15;;;;;;;0.30;0.30;;;;;;;4.16;71.97;96959.72;5036938;28;20566;-73
2022/02/25 07:57:42;;;;;;;3.37;0.90;;;;;;;4.27;71.45;96965.75;5036514;28;20209;-73
2022/02/25 08:00:15;;;;;;;1.13;0.80;;;;;;;4.45;71.74;96963.47;5035059;28;20212;-73
2022/02/25 08:02:42;;;;;;;0.30;0.30;;;;;;;4.22;71.84;96964.47;5035072;28;20267;-73
2022/02/25 08:05:10;;;;;;;0.30;0.30;;;;;;;4.35;72.00;96972.97;5035718;28;20666;-73
2022/02/25 08:07:37;;;;;;;2.63;0.63;;;;;;;4.52;71.58;96972.47;5035639;28;20591;-73
2022/02/25 08:10:04;;;;;;;0.30;0.30;;;;;;;4.83;70.96;96978.53;5033117;28;20209;-73
2022/02/25 08:12:31;;;;;;;0.33;0.33;;;;;;;4.46;71.36;96983.41;5035186;28;20224;-73
2022/02/25 08:14:58;;;;;;;0.30;0.30;;;;;;;4.46;70.83;96983.41;5035546;28;20209;-73
2022/02/25 08:17:24;;;;;;;0.40;0.40;;;;;;;4.38;70.60;96983.19;5035449;28;20581;-73
2022/02/25 08:19:51;;;;;;;0.30;0.30;;;;;;;4.56;70.55;96992.16;5035844;28;20208;-73
2022/02/25 08:22:20;;;;;;;0.50;0.50;;;;;;;4.91;69.89;96997.03;5034675;28;20221;-72
2022/02/25 08:24:47;;;;;;;0.40;0.40;;;;;;;4.71;69.35;96994.38;5035631;28;20212;-73
2022/02/25 08:27:14;;;;;;;4.33;0.60;;;;;;;4.59;69.81;96990.13;5035871;28;20961;-73
2022/02/25 08:29:40;;;;;;;0.57;0.57;;;;;;;4.69;69.59;97003.28;5035191;28;20197;-73
2022/02/25 08:32:07;;;;;;;0.47;0.47;;;;;;;4.74;69.12;97006.34;5035513;28;20244;-73
2022/02/25 08:34:34;;;;;;;0.30;0.30;;;;;;;4.81;68.22;97005.72;5035526;28;20208;-73
2022/02/25 08:37:00;;;;;;;0.80;0.60;;;;;;;4.87;67.48;97000.84;5035930;28;20212;-73
2022/02/25 08:39:28;;;;;;;0.87;0.87;;;;;;;5.12;68.83;97003.09;5035787;28;20201;-73
2022/02/25 08:41:55;;;;;;;1.17;0.67;;;;;;;4.95;67.18;97005.41;5035523;28;20710;-73
2022/02/25 08:44:22;;;;;;;0.60;0.60;;;;;;;5.00;66.13;97005.88;5034809;28;20480;-73
2022/02/25 08:46:49;;;;;;;0.27;0.27;;;;;;;5.43;65.39;97004.03;5035380;28;20209;-73
2022/02/25 08:49:16;;;;;;;0.53;0.40;;;;;;;5.44;65.69;96998.66;5035985;28;20231;-73
2022/02/25 08:51:43;;;;;;;0.40;0.40;;;;;;;5.05;65.26;97006.34;5035417;28;20233;-73
2022/02/25 08:54:10;;;;;;;0.40;0.40;;;;;;;5.33;65.81;96998.72;5034779;28;20527;-73
2022/02/25 08:56:38;;;;;;;0.30;0.30;;;;;;;5.48;65.89;96987.81;5036019;28;20212;-73
2022/02/25 08:59:06;;;;;;;1.40;0.90;;;;;;;5.52;64.61;96994.47;5035741;28;20210;-73
2022/02/25 09:01:32;;;;;;;1.23;0.40;;;;;;;5.45;65.55;97000.34;5034881;28;20271;-73
2022/02/25 09:04:01;;;;;;;0.40;0.40;;;;;;;5.76;65.21;96995.03;5035143;28;20296;-73
2022/02/25 09:06:28;;;;;;;0.47;0.47;;;;;;;6.02;64.76;96998.06;5036618;28;20202;-73
2022/02/25 09:08:55;;;;;;;0.30;0.30;;;;;;;5.79;64.01;97010.50;5035247;28;20216;-73
2022/02/25 09:11:22;;;;;;;2.63;0.47;;;;;;;5.45;64.28;97009.00;5034754;28;20233;-73
2022/02/25 09:13:50;;;;;;;0.30;0.30;;;;;;;5.87;63.57;96999.34;5038595;28;20205;-73
2022/02/25 09:16:17;;;;;;;2.43;0.70;;;;;;;5.66;63.89;97006.38;5039281;28;20591;-73
2022/02/25 09:18:45;;;;;;;0.40;0.40;;;;;;;5.75;63.05;97001.22;5038564;28;20213;-73
2022/02/25 09:21:12;;;;;;;6.33;1.00;;;;;;;5.91;63.83;97000.78;5038644;28;20228;-73
2022/02/25 09:23:39;;;;;;;3.40;1.47;;;;;;;5.80;63.56;97003.47;5038044;28;20209;-73
2022/02/25 09:26:07;;;;;;;30.03;1.33;;;;;;;6.21;63.35;96998.97;5038442;28;20693;-73
2022/02/25 09:28:33;;;;;;;0.33;0.33;;;;;;;6.25;64.46;97001.19;5038510;28;20291;-73
2022/02/25 09:31:01;;;;;;;0.20;0.20;;;;;;;6.15;63.02;96987.25;5038392;28;20232;-74
2022/02/25 09:33:28;;;;;;;3.73;0.50;;;;;;;6.08;61.31;96993.97;5037628;28;20201;-73
2022/02/25 09:35:54;;;;;;;0.70;0.53;;;;;;;6.26;59.87;96988.94;5038897;28;20205;-74
2022/02/25 09:38:20;;;;;;;0.70;0.67;;;;;;;6.56;58.93;96992.31;5037960;28;20212;-74
2022/02/25 09:40:47;;;;;;;6.13;0.60;;;;;;;6.63;59.50;96995.22;5038335;28;20225;-74
2022/02/25 09:43:14;;;;;;;0.60;0.40;;;;;;;6.77;58.69;96993.03;5037368;28;20756;-74
2022/02/25 09:45:40;;;;;;;0.47;0.40;;;;;;;6.57;58.16;96995.75;5038412;28;20205;-74
2022/02/25 09:48:11;;;;;;;0.50;0.47;;;;;;;6.59;58.50;97005.13;5037824;28;20209;-73
2022/02/25 09:50:38;;;;;;;2.47;0.70;;;;;;;6.78;58.34;96995.56;5037992;28;20689;-73
2022/02/25 09:53:05;;;;;;;0.67;0.50;;;;;;;6.85;57.14;96990.59;5037579;28;20585;-73
2022/02/25 09:55:33;;;;;;;0.20;0.20;;;;;;;6.98;57.80;96997.22;5038321;28;20217;-73
2022/02/25 09:58:03;;;;;;;2.83;0.60;;;;;;;6.95;57.67;96988.78;5038039;28;20217;-73
2022/02/25 10:00:31;;;;;;;0.30;0.30;;;;;;;6.46;57.86;96983.59;5038361;28;20201;-73
2022/02/25 10:03:00;;;;;;;1.80;1.23;;;;;;;6.55;58.78;96990.66;5037147;28;20356;-74
2022/02/25 10:05:31;;;;;;;1.07;0.60;;;;;;;6.47;58.78;96985.28;5037659;28;20220;-73
2022/02/25 10:08:08;;;;;;;1.10;0.53;;;;;;;6.88;58.76;96998.16;5038074;28;20213;-73
2022/02/25 10:10:42;;;;;;;0.83;0.67;;;;;;;6.73;56.44;96999.50;5037499;28;20205;-73
2022/02/25 10:13:09;;;;;;;10.20;2.00;;;;;;;6.87;57.07;96997.34;5037324;28;20204;-73
2022/02/25 10:15:38;;;;;;;0.43;0.43;;;;;;;6.92;56.68;97002.16;5038070;28;20197;-73
2022/02/25 10:18:06;;;;;;;5.20;1.07;;;;;;;7.01;57.26;96991.69;5037591;28;20701;-74
2022/02/25 10:20:35;;;;;;;0.83;0.37;;;;;;;7.04;56.67;96998.44;5037300;28;20206;-74
2022/02/25 10:23:01;;;;;;;0.47;0.47;;;;;;;6.82;57.43;97001.31;5036123;28;20307;-74
2022/02/25 10:25:33;;;;;;;0.67;0.67;;;;;;;7.02;57.13;96992.53;5037488;28;20555;-73
2022/02/25 10:27:59;;;;;;;1.00;0.90;;;;;;;6.66;57.01;96998.41;5037221;28;20208;-74
2022/02/25 10:30:27;;;;;;;1.67;0.93;;;;;;;6.86;56.28;96997.47;5037666;28;20212;-73
2022/02/25 10:32:55;;;;;;;0.30;0.30;;;;;;;7.14;54.87;97001.91;5036308;28;20797;-74
2022/02/25 10:35:28;;;;;;;0.73;0.60;;;;;;;7.20;53.35;96999.56;5036939;28;20262;-73
2022/02/25 10:37:58;;;;;;;0.63;0.63;;;;;;;6.99;54.66;97005.91;5037296;28;20225;-74
2022/02/25 10:40:25;;;;;;;0.50;0.50;;;;;;;6.76;55.54;97002.69;5036726;28;21246;-74
2022/02/25 10:42:52;;;;;;;1.53;0.40;;;;;;;7.08;54.24;96999.84;5036281;28;20939;-74
2022/02/25 10:45:31;;;;;;;0.60;0.60;;;;;;;7.26;53.65;97006.06;5037031;28;20444;-74
2022/02/25 10:48:01;;;;;;;0.37;0.37;;;;;;;7.07;53.81;96995.56;5037015;28;20506;-74
2022/02/25 10:50:28;;;;;;;5.40;0.70;;;;;;;6.90;54.73;96998.88;5036905;28;20519;-74
2022/02/25 10:52:57;;;;;;;1.57;0.83;;;;;;;7.02;53.60;96997.78;5036380;28;20606;-73
2022/02/25 10:55:25;;;;;;;0.30;0.30;;;;;;;7.33;51.34;96993.09;5037109;28;20205;-73
2022/02/25 10:57:54;;;;;;;3.10;0.77;;;;;;;7.33;50.31;96987.84;5037165;28;20204;-74
2022/02/25 11:00:21;;;;;;;0.40;0.40;;;;;;;7.00;51.09;96989.22;5037098;28;20228;-73
2022/02/25 11:02:49;;;;;;;0.50;0.50;;;;;;;7.29;49.64;96986.47;5036115;28;20384;-74
2022/02/25 11:05:18;;;;;;;0.30;0.30;;;;;;;7.72;48.81;96978.13;5036651;28;20232;-74
2022/02/25 11:07:46;;;;;;;1.03;0.50;;;;;;;8.06;47.23;96974.84;5036856;28;20241;-74
2022/02/25 11:10:15;;;;;;;0.93;0.70;;;;;;;8.29;47.36;96979.59;5037044;28;20213;-74
2022/02/25 11:12:44;;;;;;;2.43;0.50;;;;;;;7.69;46.59;96981.84;5036110;28;20240;-74
2022/02/25 11:15:12;;;;;;;0.90;0.27;;;;;;;7.53;45.73;96983.41;5037105;28;20239;-74
2022/02/25 11:17:41;;;;;;;0.30;0.30;;;;;;;7.03;46.54;96978.47;5037132;28;20567;-74
2022/02/25 11:20:09;;;;;;;3.00;0.40;;;;;;;7.28;45.85;96974.31;5037646;28;20197;-74
2022/02/25 11:22:39;;;;;;;3.30;0.60;;;;;;;7.41;45.64;96980.09;5036309;28;20221;-73
2022/02/25 11:25:09;;;;;;;0.40;0.30;;;;;;;7.38;45.23;96977.75;5037013;28;20662;-73
2022/02/25 11:27:37;;;;;;;1.70;0.50;;;;;;;7.68;45.55;96967.06;5037130;28;20715;-73
2022/02/25 11:30:07;;;;;;;0.30;0.30;;;;;;;7.56;45.12;96968.22;5036651;28;20256;-73
2022/02/25 11:32:40;;;;;;;0.20;0.20;;;;;;;7.42;45.15;96986.16;5036208;28;20633;-73
2022/02/25 11:35:17;;;;;;;1.90;0.30;;;;;;;7.58;44.95;96962.81;5037573;28;20208;-73
2022/02/25 11:37:46;;;;;;;1.67;1.10;;;;;;;6.98;45.43;96971.00;5037001;28;20208;-73
2022/02/25 11:40:13;;;;;;;0.20;0.20;;;;;;;7.34;45.37;96968.53;5036940;28;20267;-73
2022/02/25 11:42:41;;;;;;;4.90;0.63;;;;;;;7.42;45.63;96966.03;5036096;28;20222;-73
2022/02/25 11:45:19;;;;;;;0.20;0.20;;;;;;;7.64;45.19;96964.88;5036867;28;20205;-73
2022/02/25 11:47:51;;;;;;;0.40;0.40;;;;;;;8.26;44.69;96958.03;5036855;28;20205;-73